sensor_id;sensor_type;location;lat;lon;timestamp;pressure;altitude;pressure_sealevel;temperature;humidity
33075;BME280;19433;51.292;6.868;2022-11-25T01:38:22;99908.38;;;7.46;100.00
33075;BME280;19433;51.292;6.868;2022-11-25T01:40:47;99900.97;;;7.47;100.00
33075;BME280;19433;51.292;6.868;2022-11-25T01:50:20;99901.09;;;7.66;100.00
33075;BME280;19433;51.292;6.868;2022-11-25T01:52:59;99898.13;;;7.61;100.00
33075;BME280;19433;51.292;6.868;2022-11-25T01:55:29;99901.09;;;7.66;100.00
33075;BME280;19433;51.292;6.868;2022-11-25T01:58:14;99907.03;;;7.63;100.00
33075;BME280;19433;51.292;6.868;2022-11-25T03:19:16;99885.16;;;7.55;100.00
33075;BME280;19433;51.292;6.868;2022-11-25T03:22:19;99891.59;;;7.62;100.00
33075;BME280;19433;51.292;6.868;2022-11-25T03:24:44;99880.91;;;7.53;100.00
33075;BME280;19433;51.292;6.868;2022-11-25T03:27:09;99899.81;;;7.62;100.00
33075;BME280;19433;51.292;6.868;2022-11-25T03:29:37;99888.19;;;7.60;100.00
33075;BME280;19433;51.292;6.868;2022-11-25T03:36:00;99906.28;;;7.76;100.00
33075;BME280;19433;51.292;6.868;2022-11-25T03:38:36;99912.16;;;7.73;100.00
33075;BME280;19433;51.292;6.868;2022-11-25T03:41:01;99911.50;;;7.71;100.00
33075;BME280;19433;51.292;6.868;2022-11-25T03:43:26;99908.09;;;7.69;100.00
33075;BME280;19433;51.292;6.868;2022-11-25T03:45:54;99915.41;;;7.83;100.00
33075;BME280;19433;51.292;6.868;2022-11-25T03:52:03;99923.94;;;7.95;100.00
33075;BME280;19433;51.292;6.868;2022-11-25T03:57:51;99931.16;;;7.96;100.00
33075;BME280;19433;51.292;6.868;2022-11-25T04:10:36;99944.13;;;7.74;100.00
33075;BME280;19433;51.292;6.868;2022-11-25T04:16:25;99936.75;;;7.53;100.00
33075;BME280;19433;51.292;6.868;2022-11-25T04:18:50;99945.28;;;7.65;100.00
33075;BME280;19433;51.292;6.868;2022-11-25T04:21:39;99948.97;;;7.72;100.00
33075;BME280;19433;51.292;6.868;2022-11-25T04:24:05;99947.53;;;7.76;100.00
33075;BME280;19433;51.292;6.868;2022-11-25T04:26:30;99947.25;;;7.71;100.00
33075;BME280;19433;51.292;6.868;2022-11-25T04:28:56;99949.25;;;7.56;100.00
33075;BME280;19433;51.292;6.868;2022-11-25T04:31:21;99953.69;;;7.57;100.00
33075;BME280;19433;51.292;6.868;2022-11-25T04:33:48;99956.25;;;7.58;100.00
33075;BME280;19433;51.292;6.868;2022-11-25T04:36:14;99954.47;;;7.51;100.00
33075;BME280;19433;51.292;6.868;2022-11-25T04:38:39;99960.13;;;7.43;100.00
33075;BME280;19433;51.292;6.868;2022-11-25T04:41:04;99953.25;;;7.32;100.00
33075;BME280;19433;51.292;6.868;2022-11-25T04:43:30;99962.06;;;7.49;100.00
33075;BME280;19433;51.292;6.868;2022-11-25T04:45:56;99968.69;;;7.54;100.00
33075;BME280;19433;51.292;6.868;2022-11-25T04:48:21;99971.03;;;7.57;100.00
33075;BME280;19433;51.292;6.868;2022-11-25T04:50:47;99973.03;;;7.49;100.00
33075;BME280;19433;51.292;6.868;2022-11-25T04:53:13;99971.50;;;7.61;100.00
33075;BME280;19433;51.292;6.868;2022-11-25T04:55:38;99974.47;;;7.66;100.00
33075;BME280;19433;51.292;6.868;2022-11-25T04:58:03;99976.34;;;7.59;100.00
33075;BME280;19433;51.292;6.868;2022-11-25T05:00:29;99979.75;;;7.61;100.00
33075;BME280;19433;51.292;6.868;2022-11-25T05:02:54;99974.91;;;7.63;100.00
33075;BME280;19433;51.292;6.868;2022-11-25T05:05:19;99981.19;;;7.57;100.00
33075;BME280;19433;51.292;6.868;2022-11-25T05:07:45;99974.97;;;7.48;100.00
33075;BME280;19433;51.292;6.868;2022-11-25T05:10:10;99987.66;;;7.49;100.00
33075;BME280;19433;51.292;6.868;2022-11-25T05:12:37;99988.31;;;7.30;100.00
33075;BME280;19433;51.292;6.868;2022-11-25T05:15:03;99989.56;;;7.27;100.00
33075;BME280;19433;51.292;6.868;2022-11-25T05:17:31;99995.03;;;7.27;100.00
33075;BME280;19433;51.292;6.868;2022-11-25T05:19:56;99998.22;;;7.10;100.00
33075;BME280;19433;51.292;6.868;2022-11-25T05:22:27;99995.94;;;7.34;100.00
33075;BME280;19433;51.292;6.868;2022-11-25T05:24:54;100004.16;;;7.28;100.00
33075;BME280;19433;51.292;6.868;2022-11-25T05:27:37;99998.25;;;7.31;100.00
33075;BME280;19433;51.292;6.868;2022-11-25T05:30:03;100005.50;;;7.17;100.00
33075;BME280;19433;51.292;6.868;2022-11-25T05:32:29;100008.03;;;7.19;100.00
33075;BME280;19433;51.292;6.868;2022-11-25T05:34:54;100011.72;;;7.26;100.00
33075;BME280;19433;51.292;6.868;2022-11-25T05:37:19;100021.38;;;7.22;100.00
33075;BME280;19433;51.292;6.868;2022-11-25T05:39:44;100018.50;;;7.09;100.00
33075;BME280;19433;51.292;6.868;2022-11-25T05:42:11;100016.59;;;7.09;100.00
33075;BME280;19433;51.292;6.868;2022-11-25T05:44:36;100019.50;;;7.22;100.00
33075;BME280;19433;51.292;6.868;2022-11-25T05:47:01;100016.03;;;7.14;100.00
33075;BME280;19433;51.292;6.868;2022-11-25T05:49:32;100025.84;;;7.23;100.00
33075;BME280;19433;51.292;6.868;2022-11-25T05:51:58;100019.63;;;7.14;100.00
33075;BME280;19433;51.292;6.868;2022-11-25T05:54:25;100025.31;;;7.13;100.00
33075;BME280;19433;51.292;6.868;2022-11-25T05:56:50;100006.00;;;7.06;100.00
33075;BME280;19433;51.292;6.868;2022-11-25T05:59:15;100016.41;;;7.11;100.00
33075;BME280;19433;51.292;6.868;2022-11-25T06:01:41;100018.13;;;7.12;100.00
33075;BME280;19433;51.292;6.868;2022-11-25T06:04:06;100030.88;;;7.19;100.00
33075;BME280;19433;51.292;6.868;2022-11-25T06:06:32;100021.44;;;7.07;100.00
33075;BME280;19433;51.292;6.868;2022-11-25T06:09:12;100029.19;;;7.03;100.00
33075;BME280;19433;51.292;6.868;2022-11-25T06:11:38;100031.50;;;7.00;100.00
33075;BME280;19433;51.292;6.868;2022-11-25T06:14:03;100028.47;;;6.95;100.00
33075;BME280;19433;51.292;6.868;2022-11-25T06:16:28;100036.00;;;7.07;100.00
33075;BME280;19433;51.292;6.868;2022-11-25T06:18:53;100039.44;;;6.95;100.00
33075;BME280;19433;51.292;6.868;2022-11-25T06:21:19;100054.69;;;6.97;100.00
33075;BME280;19433;51.292;6.868;2022-11-25T06:23:44;100044.94;;;6.95;100.00
33075;BME280;19433;51.292;6.868;2022-11-25T06:26:20;100046.66;;;6.96;100.00
33075;BME280;19433;51.292;6.868;2022-11-25T06:28:46;100055.94;;;6.95;100.00
33075;BME280;19433;51.292;6.868;2022-11-25T06:31:14;100061.22;;;6.96;100.00
33075;BME280;19433;51.292;6.868;2022-11-25T06:33:41;100059.88;;;7.07;100.00
33075;BME280;19433;51.292;6.868;2022-11-25T06:36:08;100064.84;;;6.97;100.00
33075;BME280;19433;51.292;6.868;2022-11-25T06:38:37;100068.94;;;6.72;100.00
33075;BME280;19433;51.292;6.868;2022-11-25T06:41:04;100071.09;;;6.76;100.00
33075;BME280;19433;51.292;6.868;2022-11-25T06:43:30;100078.28;;;6.92;100.00
33075;BME280;19433;51.292;6.868;2022-11-25T06:46:01;100077.16;;;6.86;100.00
33075;BME280;19433;51.292;6.868;2022-11-25T06:48:27;100073.56;;;7.00;100.00
33075;BME280;19433;51.292;6.868;2022-11-25T06:50:57;100075.25;;;7.01;100.00
33075;BME280;19433;51.292;6.868;2022-11-25T06:53:23;100083.28;;;6.88;100.00
33075;BME280;19433;51.292;6.868;2022-11-25T06:55:48;100075.44;;;7.00;100.00
33075;BME280;19433;51.292;6.868;2022-11-25T06:58:13;100087.09;;;6.87;100.00
33075;BME280;19433;51.292;6.868;2022-11-25T07:00:39;100087.38;;;6.78;100.00
33075;BME280;19433;51.292;6.868;2022-11-25T07:03:04;100095.72;;;6.84;100.00
33075;BME280;19433;51.292;6.868;2022-11-25T07:05:29;100092.47;;;6.95;100.00
33075;BME280;19433;51.292;6.868;2022-11-25T07:07:55;100095.25;;;6.81;100.00
33075;BME280;19433;51.292;6.868;2022-11-25T07:10:20;100101.38;;;6.97;100.00
33075;BME280;19433;51.292;6.868;2022-11-25T07:12:46;100104.50;;;6.94;100.00
33075;BME280;19433;51.292;6.868;2022-11-25T07:15:11;100108.00;;;6.88;100.00
33075;BME280;19433;51.292;6.868;2022-11-25T07:17:36;100115.78;;;6.85;100.00
33075;BME280;19433;51.292;6.868;2022-11-25T07:20:02;100118.34;;;6.86;100.00
33075;BME280;19433;51.292;6.868;2022-11-25T07:22:27;100117.31;;;6.87;100.00
33075;BME280;19433;51.292;6.868;2022-11-25T07:24:52;100118.53;;;6.70;100.00
33075;BME280;19433;51.292;6.868;2022-11-25T07:27:17;100129.50;;;6.70;100.00
33075;BME280;19433;51.292;6.868;2022-11-25T07:29:43;100122.13;;;6.56;100.00
33075;BME280;19433;51.292;6.868;2022-11-25T07:32:08;100128.47;;;6.71;100.00
33075;BME280;19433;51.292;6.868;2022-11-25T07:34:33;100126.38;;;6.73;100.00
33075;BME280;19433;51.292;6.868;2022-11-25T07:36:58;100125.13;;;6.76;100.00
33075;BME280;19433;51.292;6.868;2022-11-25T07:39:24;100142.66;;;6.75;100.00
33075;BME280;19433;51.292;6.868;2022-11-25T07:41:50;100146.25;;;6.75;100.00
33075;BME280;19433;51.292;6.868;2022-11-25T07:44:16;100149.66;;;6.62;100.00
33075;BME280;19433;51.292;6.868;2022-11-25T07:46:43;100161.44;;;6.48;100.00
33075;BME280;19433;51.292;6.868;2022-11-25T07:49:12;100172.16;;;6.58;100.00
33075;BME280;19433;51.292;6.868;2022-11-25T07:51:43;100172.59;;;6.47;100.00
33075;BME280;19433;51.292;6.868;2022-11-25T07:54:12;100180.16;;;6.82;100.00
33075;BME280;19433;51.292;6.868;2022-11-25T07:56:40;100174.69;;;6.97;100.00
33075;BME280;19433;51.292;6.868;2022-11-25T07:59:10;100180.19;;;6.97;100.00
33075;BME280;19433;51.292;6.868;2022-11-25T08:01:36;100178.09;;;6.99;100.00
33075;BME280;19433;51.292;6.868;2022-11-25T08:04:01;100183.41;;;7.15;100.00
33075;BME280;19433;51.292;6.868;2022-11-25T08:06:27;100188.50;;;7.48;100.00
33075;BME280;19433;51.292;6.868;2022-11-25T08:08:55;100187.31;;;7.71;100.00
33075;BME280;19433;51.292;6.868;2022-11-25T08:11:26;100184.66;;;7.78;100.00
33075;BME280;19433;51.292;6.868;2022-11-25T08:13:52;100186.81;;;7.83;100.00
33075;BME280;19433;51.292;6.868;2022-11-25T08:16:20;100191.66;;;7.81;100.00
33075;BME280;19433;51.292;6.868;2022-11-25T08:18:46;100194.44;;;8.02;100.00
33075;BME280;19433;51.292;6.868;2022-11-25T08:21:13;100199.59;;;7.90;100.00
33075;BME280;19433;51.292;6.868;2022-11-25T08:23:40;100204.44;;;7.88;100.00
33075;BME280;19433;51.292;6.868;2022-11-25T08:26:12;100212.38;;;7.62;100.00
33075;BME280;19433;51.292;6.868;2022-11-25T08:28:39;100218.72;;;7.62;100.00
33075;BME280;19433;51.292;6.868;2022-11-25T08:31:11;100229.78;;;7.69;100.00
33075;BME280;19433;51.292;6.868;2022-11-25T08:33:37;100238.59;;;7.64;100.00
33075;BME280;19433;51.292;6.868;2022-11-25T08:36:03;100228.03;;;7.61;100.00
33075;BME280;19433;51.292;6.868;2022-11-25T08:38:29;100232.47;;;7.62;100.00
33075;BME280;19433;51.292;6.868;2022-11-25T08:40:54;100227.34;;;7.59;100.00
33075;BME280;19433;51.292;6.868;2022-11-25T08:43:20;100231.91;;;7.37;100.00
33075;BME280;19433;51.292;6.868;2022-11-25T08:45:47;100231.63;;;7.47;100.00
33075;BME280;19433;51.292;6.868;2022-11-25T08:48:14;100243.06;;;7.65;100.00
33075;BME280;19433;51.292;6.868;2022-11-25T08:50:41;100246.59;;;7.74;100.00
33075;BME280;19433;51.292;6.868;2022-11-25T08:53:09;100247.69;;;7.94;100.00
33075;BME280;19433;51.292;6.868;2022-11-25T08:55:34;100247.91;;;8.14;100.00
33075;BME280;19433;51.292;6.868;2022-11-25T08:58:01;100240.25;;;8.31;100.00
33075;BME280;19433;51.292;6.868;2022-11-25T09:00:26;100234.81;;;8.16;100.00
33075;BME280;19433;51.292;6.868;2022-11-25T09:02:52;100238.78;;;8.13;100.00
33075;BME280;19433;51.292;6.868;2022-11-25T09:05:17;100242.25;;;8.01;100.00
33075;BME280;19433;51.292;6.868;2022-11-25T09:07:42;100247.00;;;8.07;100.00
33075;BME280;19433;51.292;6.868;2022-11-25T09:10:13;100248.56;;;8.16;100.00
33075;BME280;19433;51.292;6.868;2022-11-25T09:12:39;100261.94;;;8.34;100.00
33075;BME280;19433;51.292;6.868;2022-11-25T09:15:05;100265.00;;;8.45;100.00
33075;BME280;19433;51.292;6.868;2022-11-25T09:17:30;100273.47;;;8.65;100.00
33075;BME280;19433;51.292;6.868;2022-11-25T09:19:55;100275.69;;;8.76;100.00
33075;BME280;19433;51.292;6.868;2022-11-25T09:22:21;100268.47;;;8.97;100.00
33075;BME280;19433;51.292;6.868;2022-11-25T09:24:46;100270.22;;;9.04;100.00
33075;BME280;19433;51.292;6.868;2022-11-25T09:27:11;100270.63;;;9.29;100.00
33075;BME280;19433;51.292;6.868;2022-11-25T09:29:37;100278.78;;;9.44;100.00
33075;BME280;19433;51.292;6.868;2022-11-25T09:32:02;100290.66;;;9.79;100.00
33075;BME280;19433;51.292;6.868;2022-11-25T09:34:27;100292.25;;;10.42;100.00
33075;BME280;19433;51.292;6.868;2022-11-25T09:36:53;100290.19;;;10.64;100.00
33075;BME280;19433;51.292;6.868;2022-11-25T09:39:18;100299.16;;;11.06;100.00
33075;BME280;19433;51.292;6.868;2022-11-25T09:50:22;100308.94;;;10.82;100.00
33075;BME280;19433;51.292;6.868;2022-11-25T09:53:09;100313.50;;;10.55;100.00
33075;BME280;19433;51.292;6.868;2022-11-25T09:55:44;100316.06;;;10.50;100.00
33075;BME280;19433;51.292;6.868;2022-11-25T09:58:32;100312.50;;;10.69;100.00
33075;BME280;19433;51.292;6.868;2022-11-25T10:01:03;100318.84;;;10.56;100.00
33075;BME280;19433;51.292;6.868;2022-11-25T10:03:35;100326.56;;;11.67;100.00
33075;BME280;19433;51.292;6.868;2022-11-25T10:08:42;100343.69;;;12.79;89.46
33075;BME280;19433;51.292;6.868;2022-11-25T10:11:43;100339.38;;;12.83;91.13
33075;BME280;19433;51.292;6.868;2022-11-25T10:14:24;100350.47;;;12.39;92.16
33075;BME280;19433;51.292;6.868;2022-11-25T10:19:41;100341.06;;;11.75;96.33
33075;BME280;19433;51.292;6.868;2022-11-25T10:22:24;100349.34;;;11.22;98.69
33075;BME280;19433;51.292;6.868;2022-11-25T10:24:52;100354.91;;;11.82;97.38
33075;BME280;19433;51.292;6.868;2022-11-25T10:27:23;100360.53;;;12.26;93.89
33075;BME280;19433;51.292;6.868;2022-11-25T10:29:58;100353.50;;;12.24;93.18
33075;BME280;19433;51.292;6.868;2022-11-25T10:32:27;100356.94;;;12.19;93.57
33075;BME280;19433;51.292;6.868;2022-11-25T10:34:59;100354.66;;;11.70;96.01
33075;BME280;19433;51.292;6.868;2022-11-25T10:37:33;100362.75;;;11.98;96.21
33075;BME280;19433;51.292;6.868;2022-11-25T10:40:01;100361.72;;;11.86;94.51
33075;BME280;19433;51.292;6.868;2022-11-25T10:42:27;100364.94;;;11.76;97.15
33075;BME280;19433;51.292;6.868;2022-11-25T10:44:53;100365.31;;;11.53;97.50
33075;BME280;19433;51.292;6.868;2022-11-25T10:47:49;100365.69;;;10.84;98.92
33075;BME280;19433;51.292;6.868;2022-11-25T10:50:26;100372.44;;;10.69;100.00
33075;BME280;19433;51.292;6.868;2022-11-25T10:55:33;100364.19;;;10.88;100.00
33075;BME280;19433;51.292;6.868;2022-11-25T10:58:20;100378.06;;;10.41;100.00
33075;BME280;19433;51.292;6.868;2022-11-25T11:01:00;100378.66;;;10.30;100.00
33075;BME280;19433;51.292;6.868;2022-11-25T11:03:26;100369.22;;;10.17;100.00
33075;BME280;19433;51.292;6.868;2022-11-25T11:05:52;100369.59;;;10.49;100.00
33075;BME280;19433;51.292;6.868;2022-11-25T11:08:23;100376.44;;;10.60;100.00
33075;BME280;19433;51.292;6.868;2022-11-25T11:13:32;100388.78;;;10.64;100.00
33075;BME280;19433;51.292;6.868;2022-11-25T11:15:58;100388.47;;;11.06;100.00
33075;BME280;19433;51.292;6.868;2022-11-25T11:20:56;100387.63;;;10.99;98.84
33075;BME280;19433;51.292;6.868;2022-11-25T11:23:23;100393.16;;;11.06;98.69
33075;BME280;19433;51.292;6.868;2022-11-25T11:25:57;100394.22;;;11.05;97.74
33075;BME280;19433;51.292;6.868;2022-11-25T11:33:57;100400.22;;;11.28;95.03
33075;BME280;19433;51.292;6.868;2022-11-25T11:37:04;100398.06;;;11.23;96.27
33075;BME280;19433;51.292;6.868;2022-11-25T11:42:26;100407.00;;;11.19;95.16
33075;BME280;19433;51.292;6.868;2022-11-25T11:50:25;100404.38;;;10.91;95.64
33075;BME280;19433;51.292;6.868;2022-11-25T12:01:10;100423.78;;;11.11;95.20
33075;BME280;19433;51.292;6.868;2022-11-25T12:03:48;100418.25;;;11.04;95.93
33075;BME280;19433;51.292;6.868;2022-11-25T12:06:17;100417.59;;;10.96;95.73
33075;BME280;19433;51.292;6.868;2022-11-25T12:08:49;100423.38;;;11.14;94.45
33075;BME280;19433;51.292;6.868;2022-11-25T12:11:22;100429.38;;;11.50;92.99
33075;BME280;19433;51.292;6.868;2022-11-25T12:14:02;100433.00;;;11.71;91.52
33075;BME280;19433;51.292;6.868;2022-11-25T12:16:58;100437.06;;;11.75;91.07
33075;BME280;19433;51.292;6.868;2022-11-25T12:19:48;100437.44;;;11.32;91.13
33075;BME280;19433;51.292;6.868;2022-11-25T12:22:27;100435.88;;;11.03;92.90
33075;BME280;19433;51.292;6.868;2022-11-25T12:27:39;100448.25;;;10.53;94.43
33075;BME280;19433;51.292;6.868;2022-11-25T12:30:11;100456.31;;;10.54;93.90
33075;BME280;19433;51.292;6.868;2022-11-25T12:35:39;100454.97;;;10.37;95.36
33075;BME280;19433;51.292;6.868;2022-11-25T12:38:20;100452.03;;;10.45;96.25
33075;BME280;19433;51.292;6.868;2022-11-25T12:44:16;100467.66;;;10.66;94.09
33075;BME280;19433;51.292;6.868;2022-11-25T12:46:47;100464.94;;;10.86;93.71
33075;BME280;19433;51.292;6.868;2022-11-25T12:49:22;100464.44;;;10.63;93.13
33075;BME280;19433;51.292;6.868;2022-11-25T12:55:09;100483.16;;;10.67;94.15
33075;BME280;19433;51.292;6.868;2022-11-25T13:06:22;100490.94;;;10.91;91.27
33075;BME280;19433;51.292;6.868;2022-11-25T13:17:36;100510.34;;;10.29;93.44
33075;BME280;19433;51.292;6.868;2022-11-25T13:23:01;100516.22;;;10.19;94.05
33075;BME280;19433;51.292;6.868;2022-11-25T13:25:32;100516.38;;;10.18;94.52
33075;BME280;19433;51.292;6.868;2022-11-25T13:27:59;100526.97;;;10.14;95.31
33075;BME280;19433;51.292;6.868;2022-11-25T13:36:23;100527.81;;;10.15;95.71
33075;BME280;19433;51.292;6.868;2022-11-25T13:49:55;100556.03;;;10.10;95.02
33075;BME280;19433;51.292;6.868;2022-11-25T13:52:38;100553.91;;;10.12;94.51
33075;BME280;19433;51.292;6.868;2022-11-25T13:55:37;100560.69;;;10.31;93.74
33075;BME280;19433;51.292;6.868;2022-11-25T13:58:25;100569.78;;;10.53;92.54
33075;BME280;19433;51.292;6.868;2022-11-25T14:08:38;100570.34;;;10.76;88.86
33075;BME280;19433;51.292;6.868;2022-11-25T14:21:54;100591.25;;;10.51;89.82
33075;BME280;19433;51.292;6.868;2022-11-25T14:24:43;100590.38;;;10.50;89.48
33075;BME280;19433;51.292;6.868;2022-11-25T14:27:13;100595.94;;;10.57;88.83
33075;BME280;19433;51.292;6.868;2022-11-25T14:29:47;100591.47;;;10.56;89.17
33075;BME280;19433;51.292;6.868;2022-11-25T14:32:20;100584.38;;;10.19;90.24
33075;BME280;19433;51.292;6.868;2022-11-25T14:34:51;100605.66;;;10.04;90.39
33075;BME280;19433;51.292;6.868;2022-11-25T14:37:46;100611.44;;;10.09;91.22
33075;BME280;19433;51.292;6.868;2022-11-25T14:40:20;100603.88;;;9.96;92.09
33075;BME280;19433;51.292;6.868;2022-11-25T14:42:51;100612.34;;;9.95;92.37
33075;BME280;19433;51.292;6.868;2022-11-25T14:45:30;100613.91;;;10.18;91.66
33075;BME280;19433;51.292;6.868;2022-11-25T14:48:10;100612.16;;;10.17;91.96
33075;BME280;19433;51.292;6.868;2022-11-25T14:50:36;100614.47;;;10.14;93.19
33075;BME280;19433;51.292;6.868;2022-11-25T14:53:08;100620.19;;;9.91;92.99
33075;BME280;19433;51.292;6.868;2022-11-25T14:55:34;100616.50;;;9.84;94.01
33075;BME280;19433;51.292;6.868;2022-11-25T14:57:59;100616.69;;;9.82;94.31
33075;BME280;19433;51.292;6.868;2022-11-25T15:00:25;100615.78;;;9.75;94.77
33075;BME280;19433;51.292;6.868;2022-11-25T15:03:02;100621.41;;;9.67;95.71
33075;BME280;19433;51.292;6.868;2022-11-25T15:05:37;100631.47;;;9.75;95.61
33075;BME280;19433;51.292;6.868;2022-11-25T15:08:10;100629.78;;;9.74;96.10
33075;BME280;19433;51.292;6.868;2022-11-25T15:10:40;100639.81;;;9.81;96.77
33075;BME280;19433;51.292;6.868;2022-11-25T15:13:11;100630.97;;;9.86;96.29
33075;BME280;19433;51.292;6.868;2022-11-25T15:15:37;100648.03;;;9.96;96.38
33075;BME280;19433;51.292;6.868;2022-11-25T15:18:04;100637.66;;;9.98;96.53
33075;BME280;19433;51.292;6.868;2022-11-25T15:20:30;100642.66;;;9.88;96.57
33075;BME280;19433;51.292;6.868;2022-11-25T15:22:58;100648.28;;;9.80;97.20
33075;BME280;19433;51.292;6.868;2022-11-25T15:25:24;100659.84;;;9.69;97.72
33075;BME280;19433;51.292;6.868;2022-11-25T15:27:51;100655.38;;;9.68;97.72
33075;BME280;19433;51.292;6.868;2022-11-25T15:30:21;100657.03;;;9.62;97.37
33075;BME280;19433;51.292;6.868;2022-11-25T15:32:47;100666.16;;;9.48;98.33
33075;BME280;19433;51.292;6.868;2022-11-25T15:35:17;100670.63;;;9.49;98.57
33075;BME280;19433;51.292;6.868;2022-11-25T15:37:43;100666.38;;;9.46;99.09
33075;BME280;19433;51.292;6.868;2022-11-25T15:42:57;100677.31;;;9.10;100.00
33075;BME280;19433;51.292;6.868;2022-11-25T15:45:23;100690.41;;;8.94;100.00
33075;BME280;19433;51.292;6.868;2022-11-25T15:47:49;100687.84;;;8.77;100.00
33075;BME280;19433;51.292;6.868;2022-11-25T15:50:19;100699.22;;;8.74;100.00
33075;BME280;19433;51.292;6.868;2022-11-25T15:52:48;100703.78;;;8.67;100.00
33075;BME280;19433;51.292;6.868;2022-11-25T15:58:41;100709.88;;;8.77;100.00
33075;BME280;19433;51.292;6.868;2022-11-25T16:03:42;100716.72;;;8.81;100.00
33075;BME280;19433;51.292;6.868;2022-11-25T16:06:21;100716.63;;;8.90;100.00
33075;BME280;19433;51.292;6.868;2022-11-25T16:12:15;100730.22;;;8.91;100.00
33075;BME280;19433;51.292;6.868;2022-11-25T16:14:41;100732.91;;;8.99;100.00
33075;BME280;19433;51.292;6.868;2022-11-25T16:17:10;100732.31;;;9.04;100.00
33075;BME280;19433;51.292;6.868;2022-11-25T16:19:41;100730.16;;;8.99;100.00
33075;BME280;19433;51.292;6.868;2022-11-25T16:22:12;100736.97;;;9.03;100.00
33075;BME280;19433;51.292;6.868;2022-11-25T16:24:48;100739.66;;;8.97;100.00
33075;BME280;19433;51.292;6.868;2022-11-25T16:29:51;100740.59;;;9.04;100.00
33075;BME280;19433;51.292;6.868;2022-11-25T16:32:25;100748.59;;;8.99;100.00
33075;BME280;19433;51.292;6.868;2022-11-25T16:35:21;100753.78;;;8.94;100.00
33075;BME280;19433;51.292;6.868;2022-11-25T16:37:47;100757.09;;;8.89;100.00
33075;BME280;19433;51.292;6.868;2022-11-25T16:40:13;100761.78;;;9.03;100.00
33075;BME280;19433;51.292;6.868;2022-11-25T16:42:39;100773.75;;;8.96;100.00
33075;BME280;19433;51.292;6.868;2022-11-25T16:45:16;100772.41;;;8.92;100.00
33075;BME280;19433;51.292;6.868;2022-11-25T16:47:43;100778.22;;;8.97;100.00
33075;BME280;19433;51.292;6.868;2022-11-25T16:50:13;100773.88;;;9.17;100.00
33075;BME280;19433;51.292;6.868;2022-11-25T16:52:38;100781.06;;;9.03;100.00
33075;BME280;19433;51.292;6.868;2022-11-25T16:55:04;100781.56;;;9.07;100.00
33075;BME280;19433;51.292;6.868;2022-11-25T16:57:29;100784.28;;;8.92;100.00
33075;BME280;19433;51.292;6.868;2022-11-25T16:59:55;100797.50;;;8.97;100.00
33075;BME280;19433;51.292;6.868;2022-11-25T17:02:22;100799.91;;;9.00;100.00
33075;BME280;19433;51.292;6.868;2022-11-25T17:04:48;100807.13;;;9.01;100.00
33075;BME280;19433;51.292;6.868;2022-11-25T17:10:35;100817.94;;;9.02;100.00
33075;BME280;19433;51.292;6.868;2022-11-25T17:13:00;100827.56;;;9.06;100.00
33075;BME280;19433;51.292;6.868;2022-11-25T17:15:36;100833.25;;;9.05;100.00
33075;BME280;19433;51.292;6.868;2022-11-25T17:18:04;100826.41;;;9.01;100.00
33075;BME280;19433;51.292;6.868;2022-11-25T17:20:31;100830.88;;;9.02;100.00
33075;BME280;19433;51.292;6.868;2022-11-25T17:22:56;100840.19;;;9.01;100.00
33075;BME280;19433;51.292;6.868;2022-11-25T17:25:24;100843.31;;;8.98;100.00
33075;BME280;19433;51.292;6.868;2022-11-25T17:27:52;100839.41;;;8.92;100.00
33075;BME280;19433;51.292;6.868;2022-11-25T17:30:26;100847.97;;;8.97;100.00
33075;BME280;19433;51.292;6.868;2022-11-25T17:36:32;100863.03;;;8.87;100.00
33075;BME280;19433;51.292;6.868;2022-11-25T17:42:27;100878.75;;;8.78;100.00
33075;BME280;19433;51.292;6.868;2022-11-25T17:48:32;100889.97;;;8.76;100.00
33075;BME280;19433;51.292;6.868;2022-11-25T17:54:19;100893.84;;;8.59;100.00
33075;BME280;19433;51.292;6.868;2022-11-25T17:57:05;100903.84;;;8.60;100.00
33075;BME280;19433;51.292;6.868;2022-11-25T17:59:32;100914.19;;;8.58;100.00
33075;BME280;19433;51.292;6.868;2022-11-25T18:01:59;100921.81;;;8.48;100.00
33075;BME280;19433;51.292;6.868;2022-11-25T18:04:33;100918.56;;;8.44;100.00
33075;BME280;19433;51.292;6.868;2022-11-25T18:10:25;100929.44;;;8.30;100.00
33075;BME280;19433;51.292;6.868;2022-11-25T18:29:14;100961.72;;;7.89;100.00
33075;BME280;19433;51.292;6.868;2022-11-25T18:31:41;100975.88;;;7.61;100.00
33075;BME280;19433;51.292;6.868;2022-11-25T18:34:14;100974.84;;;7.38;100.00
33075;BME280;19433;51.292;6.868;2022-11-25T18:36:39;100964.69;;;7.06;100.00
33075;BME280;19433;51.292;6.868;2022-11-25T18:39:05;100974.44;;;6.84;100.00
33075;BME280;19433;51.292;6.868;2022-11-25T18:41:30;100961.19;;;6.80;100.00
33075;BME280;19433;51.292;6.868;2022-11-25T18:47:17;100973.56;;;6.84;100.00
33075;BME280;19433;51.292;6.868;2022-11-25T18:49:42;100982.81;;;6.75;100.00
33075;BME280;19433;51.292;6.868;2022-11-25T18:52:10;100981.78;;;6.67;100.00
33075;BME280;19433;51.292;6.868;2022-11-25T18:54:35;100984.84;;;6.72;100.00
33075;BME280;19433;51.292;6.868;2022-11-25T18:57:00;100995.66;;;6.74;100.00
33075;BME280;19433;51.292;6.868;2022-11-25T18:59:32;101004.81;;;6.91;100.00
33075;BME280;19433;51.292;6.868;2022-11-25T19:01:58;101010.16;;;6.92;100.00
33075;BME280;19433;51.292;6.868;2022-11-25T19:04:23;101002.94;;;6.91;100.00
33075;BME280;19433;51.292;6.868;2022-11-25T19:06:48;101005.84;;;6.90;100.00
33075;BME280;19433;51.292;6.868;2022-11-25T19:09:14;101016.28;;;6.78;100.00
33075;BME280;19433;51.292;6.868;2022-11-25T19:11:46;101008.75;;;6.72;100.00
33075;BME280;19433;51.292;6.868;2022-11-25T19:14:28;101020.53;;;6.64;100.00
33075;BME280;19433;51.292;6.868;2022-11-25T19:16:58;101030.97;;;6.53;100.00
33075;BME280;19433;51.292;6.868;2022-11-25T19:19:25;101034.19;;;6.48;100.00